createdAt,value
2018-06-19T00:00:26.342Z,22.80
2018-06-19T00:02:28.419Z,22.90
2018-06-19T00:04:30.478Z,23.20
2018-06-19T00:06:32.522Z,22.37
2018-06-19T00:08:34.594Z,24.40
2018-06-19T00:10:36.652Z,25.67
2018-06-19T00:12:38.727Z,25.87
2018-06-19T00:14:40.796Z,25.37
2018-06-19T00:16:42.913Z,22.70
2018-06-19T00:18:48.250Z,25.00
2018-06-19T00:20:51.273Z,23.47
2018-06-19T00:22:53.336Z,24.73
2018-06-19T00:24:55.389Z,26.37
2018-06-19T00:26:57.522Z,24.40
2018-06-19T00:28:59.770Z,24.90
2018-06-19T00:31:01.839Z,24.50
2018-06-19T00:33:03.930Z,23.83
2018-06-19T00:35:05.970Z,23.10
2018-06-19T00:37:08.022Z,23.63
2018-06-19T00:39:11.342Z,23.73
2018-06-19T00:41:13.409Z,23.17
2018-06-19T00:43:15.490Z,23.77
2018-06-19T00:45:17.541Z,24.87
2018-06-19T00:47:19.589Z,25.90
2018-06-19T00:49:21.627Z,25.30
2018-06-19T00:51:23.677Z,23.73
2018-06-19T00:53:25.731Z,24.80
2018-06-19T00:55:27.801Z,25.03
2018-06-19T00:57:29.869Z,24.60
2018-06-19T00:59:31.911Z,24.50
2018-06-19T01:01:33.977Z,25.90
2018-06-19T01:03:36.092Z,25.77
2018-06-19T01:05:38.142Z,24.80
2018-06-19T01:07:40.213Z,26.80
2018-06-19T01:09:42.259Z,24.77
2018-06-19T01:11:44.313Z,25.90
2018-06-19T01:13:46.375Z,23.90
2018-06-19T01:15:48.412Z,23.73
2018-06-19T01:17:50.464Z,25.53
2018-06-19T01:19:52.586Z,26.10
2018-06-19T01:21:54.624Z,22.80
2018-06-19T01:23:56.687Z,24.23
2018-06-19T01:25:58.766Z,25.70
2018-06-19T01:28:00.821Z,24.77
2018-06-19T01:30:02.898Z,23.83
2018-06-19T01:32:05.273Z,24.40
2018-06-19T01:34:07.343Z,23.73
2018-06-19T01:36:09.389Z,25.10
2018-06-19T01:38:11.574Z,26.52
2018-06-19T01:40:13.524Z,27.50
2018-06-19T01:42:15.581Z,26.50
2018-06-19T01:44:17.629Z,25.80
2018-06-19T01:46:19.646Z,24.60
2018-06-19T01:48:21.708Z,25.73
2018-06-19T01:50:23.805Z,26.83
2018-06-19T01:52:25.858Z,25.53
2018-06-19T01:54:27.913Z,25.80
2018-06-19T01:56:29.971Z,26.83
2018-06-19T01:58:32.039Z,24.70
2018-06-19T02:00:34.097Z,27.23
2018-06-19T02:02:36.170Z,26.90
2018-06-19T02:04:38.261Z,26.60
2018-06-19T02:06:40.324Z,26.93
2018-06-19T02:08:42.674Z,27.53
2018-06-19T02:10:44.727Z,26.33
2018-06-19T02:12:46.787Z,26.20
2018-06-19T02:14:48.846Z,26.17
2018-06-19T02:16:50.897Z,25.90
2018-06-19T02:18:52.959Z,24.97
2018-06-19T02:20:55.110Z,25.10
2018-06-19T02:22:57.169Z,25.40
2018-06-19T02:24:59.235Z,26.27
2018-06-19T02:27:01.310Z,26.67
2018-06-19T02:29:03.405Z,25.57
2018-06-19T02:31:05.503Z,25.63
2018-06-19T02:33:07.563Z,25.60
2018-06-19T02:35:09.618Z,25.83
2018-06-19T02:37:11.678Z,24.67
2018-06-19T02:39:13.736Z,25.30
2018-06-19T02:41:15.784Z,25.57
2018-06-19T02:43:17.853Z,23.80
2018-06-19T02:45:19.950Z,19.93
2018-06-19T02:47:21.994Z,21.20
2018-06-19T02:49:24.036Z,22.00
2018-06-19T02:51:26.093Z,21.17
2018-06-19T02:53:28.154Z,21.87
2018-06-19T02:55:30.194Z,20.30
2018-06-19T02:57:32.243Z,20.53
2018-06-19T02:59:34.294Z,20.57
2018-06-19T03:01:36.346Z,20.30
2018-06-19T03:03:38.401Z,19.73
2018-06-19T03:05:40.599Z,19.60
2018-06-19T03:07:42.656Z,20.10
2018-06-19T03:09:44.735Z,19.70
2018-06-19T03:11:46.797Z,20.20
2018-06-19T03:13:48.927Z,18.83
2018-06-19T03:15:50.929Z,17.33
2018-06-19T03:17:53.008Z,20.20
2018-06-19T03:19:55.128Z,18.97
2018-06-19T03:21:57.189Z,19.40
2018-06-19T03:23:59.281Z,19.10
2018-06-19T03:26:01.321Z,21.10
2018-06-19T03:28:03.388Z,20.67
2018-06-19T03:30:05.512Z,21.63
2018-06-19T03:32:07.533Z,23.60
2018-06-19T03:34:09.676Z,22.13
2018-06-19T03:36:11.782Z,22.53
2018-06-19T03:38:13.873Z,25.70
2018-06-19T03:40:15.982Z,25.83
2018-06-19T03:42:18.040Z,28.87
2018-06-19T03:44:20.153Z,28.40
2018-06-19T03:46:22.234Z,29.93
2018-06-19T03:48:24.297Z,30.37
2018-06-19T03:50:26.355Z,29.50
2018-06-19T03:52:28.413Z,28.10
2018-06-19T03:54:30.470Z,29.97
2018-06-19T03:56:32.514Z,28.70
2018-06-19T03:58:34.581Z,27.83
2018-06-19T04:00:36.642Z,29.20
2018-06-19T04:02:38.697Z,29.43
2018-06-19T04:04:40.754Z,28.90
2018-06-19T04:06:42.820Z,28.00
2018-06-19T04:08:44.886Z,28.80
2018-06-19T04:10:46.973Z,28.30
2018-06-19T04:12:48.991Z,31.65
2018-06-19T04:14:51.032Z,30.47
2018-06-19T04:16:53.090Z,29.23
2018-06-19T04:18:55.149Z,27.53
2018-06-19T04:20:57.184Z,27.83
2018-06-19T04:22:59.242Z,25.10
2018-06-19T04:25:01.292Z,24.97
2018-06-19T04:27:03.353Z,26.33
2018-06-19T04:29:05.440Z,25.00
2018-06-19T04:31:07.501Z,27.40
2018-06-19T04:33:09.536Z,24.57
2018-06-19T04:35:12.371Z,24.37
2018-06-19T04:37:14.545Z,25.20
2018-06-19T04:39:16.610Z,23.70
2018-06-19T04:41:18.669Z,24.03
2018-06-19T04:43:20.724Z,23.30
2018-06-19T04:45:22.767Z,22.70
2018-06-19T04:47:24.838Z,20.93
2018-06-19T04:49:26.902Z,22.43
2018-06-19T04:51:28.977Z,21.27
2018-06-19T04:53:31.046Z,19.67
2018-06-19T04:55:33.122Z,21.50
2018-06-19T04:57:35.163Z,21.93
2018-06-19T04:59:37.348Z,20.10
2018-06-19T05:01:39.430Z,20.30
2018-06-19T05:03:41.555Z,17.83
2018-06-19T05:05:43.561Z,18.50
2018-06-19T05:07:45.672Z,18.13
2018-06-19T05:09:47.814Z,18.90
2018-06-19T05:11:49.911Z,18.47
2018-06-19T05:13:51.969Z,17.37
2018-06-19T05:15:54.014Z,15.83
2018-06-19T05:17:56.054Z,16.23
2018-06-19T05:19:58.119Z,16.93
2018-06-19T05:22:00.253Z,16.57
2018-06-19T05:24:02.634Z,15.50
2018-06-19T05:26:04.714Z,15.57
2018-06-19T05:28:06.795Z,15.27
2018-06-19T05:30:08.896Z,12.40
2018-06-19T05:32:10.956Z,14.20
2018-06-19T05:34:13.020Z,12.53
2018-06-19T05:36:15.124Z,13.50
2018-06-19T05:38:17.165Z,13.90
2018-06-19T05:40:19.209Z,13.63
2018-06-19T05:42:21.278Z,12.50
2018-06-19T05:44:23.341Z,11.40
2018-06-19T05:46:25.425Z,11.83
2018-06-19T05:48:27.528Z,11.60
2018-06-19T05:50:29.622Z,11.30
2018-06-19T05:52:31.866Z,12.10
2018-06-19T05:54:34.122Z,11.70
2018-06-19T05:56:36.277Z,11.50
2018-06-19T05:58:38.329Z,10.43
2018-06-19T06:00:40.379Z,9.80
2018-06-19T06:02:42.436Z,9.80
2018-06-19T06:04:44.494Z,10.50
2018-06-19T06:06:46.602Z,10.33
2018-06-19T06:08:48.670Z,10.40
2018-06-19T06:10:50.717Z,10.03
2018-06-19T06:12:52.837Z,9.83
2018-06-19T06:14:54.926Z,9.20
2018-06-19T06:16:57.036Z,8.53
2018-06-19T06:18:59.097Z,7.97
2018-06-19T06:21:01.167Z,8.17
2018-06-19T06:23:03.263Z,8.70
2018-06-19T06:25:05.359Z,8.83
2018-06-19T06:27:07.992Z,8.57
2018-06-19T06:29:10.098Z,8.00
2018-06-19T06:31:12.165Z,8.50
2018-06-19T06:33:14.253Z,7.93
2018-06-19T06:35:16.437Z,8.50
2018-06-19T06:37:18.537Z,7.77
2018-06-19T06:39:20.677Z,8.00
2018-06-19T06:41:22.750Z,8.13
2018-06-19T06:43:24.921Z,8.35
2018-06-19T06:45:27.018Z,7.73
2018-06-19T06:47:29.098Z,7.30
2018-06-19T06:49:31.163Z,7.07
2018-06-19T06:51:33.254Z,8.00
2018-06-19T06:53:35.318Z,7.97
2018-06-19T06:55:37.406Z,7.60
2018-06-19T06:57:39.487Z,7.00
2018-06-19T06:59:41.584Z,9.27
2018-06-19T07:01:43.669Z,8.13
2018-06-19T07:03:45.776Z,7.40
2018-06-19T07:05:47.848Z,7.43
2018-06-19T07:07:49.939Z,7.30
2018-06-19T07:09:52.111Z,8.10
2018-06-19T07:11:54.127Z,7.53
2018-06-19T07:13:56.224Z,6.73
2018-06-19T07:15:58.360Z,7.20
2018-06-19T07:18:00.424Z,7.03
2018-06-19T07:20:02.578Z,8.47
2018-06-19T07:22:04.911Z,7.40
2018-06-19T07:24:07.121Z,6.57
2018-06-19T07:26:09.244Z,9.00
2018-06-19T07:28:11.313Z,8.03
2018-06-19T07:30:13.609Z,8.50
2018-06-19T07:32:15.668Z,7.10
2018-06-19T07:34:17.753Z,7.30
2018-06-19T07:36:19.847Z,8.30
2018-06-19T07:38:22.005Z,8.93
2018-06-19T07:40:24.093Z,7.60
2018-06-19T07:42:26.185Z,7.80
2018-06-19T07:44:28.287Z,7.83
2018-06-19T07:46:30.338Z,8.37
2018-06-19T07:48:32.396Z,8.17
2018-06-19T07:50:34.450Z,7.40
2018-06-19T07:52:36.523Z,8.20
2018-06-19T07:54:38.630Z,7.77
2018-06-19T07:56:40.677Z,8.60
2018-06-19T07:58:42.750Z,7.50
2018-06-19T08:00:44.846Z,8.30
2018-06-19T08:02:46.909Z,7.83
2018-06-19T08:04:48.991Z,8.17
2018-06-19T08:06:51.062Z,7.97
2018-06-19T08:08:53.180Z,7.20
2018-06-19T08:10:55.364Z,7.93
2018-06-19T08:12:57.412Z,8.07
2018-06-19T08:14:59.467Z,8.10
2018-06-19T08:17:01.506Z,9.10
2018-06-19T08:19:03.642Z,9.37
2018-06-19T08:21:06.089Z,8.50
2018-06-19T08:23:08.129Z,8.20
2018-06-19T08:25:10.162Z,8.47
2018-06-19T08:27:12.282Z,8.90
2018-06-19T08:29:14.338Z,8.03
2018-06-19T08:31:16.369Z,8.50
2018-06-19T08:33:18.439Z,8.90
2018-06-19T08:35:20.485Z,8.50
2018-06-19T08:37:22.541Z,8.80
2018-06-19T08:39:24.681Z,9.93
2018-06-19T08:41:26.762Z,9.80
2018-06-19T08:43:28.826Z,9.53
2018-06-19T08:45:30.991Z,9.80
2018-06-19T08:47:33.057Z,10.53
2018-06-19T08:49:35.159Z,9.30
2018-06-19T08:51:37.285Z,10.97
2018-06-19T08:53:39.401Z,10.30
2018-06-19T08:55:41.505Z,10.50
2018-06-19T08:57:43.615Z,10.50
2018-06-19T08:59:45.705Z,10.73
2018-06-19T09:01:47.840Z,10.17
2018-06-19T09:03:49.962Z,12.10
2018-06-19T09:05:52.154Z,11.43
2018-06-19T09:07:54.336Z,11.97
2018-06-19T09:09:56.460Z,11.33
2018-06-19T09:11:58.627Z,11.60
2018-06-19T09:14:00.767Z,11.75
2018-06-19T09:16:02.975Z,12.73
2018-06-19T09:18:05.219Z,13.40
2018-06-19T09:20:07.407Z,14.33
2018-06-19T09:22:09.518Z,14.70
2018-06-19T09:24:11.671Z,13.83
2018-06-19T09:26:13.750Z,14.37
2018-06-19T09:28:15.982Z,15.80
